sensor_id;sensor_type;location;lat;lon;timestamp;P1;durP1;ratioP1;P2;durP2;ratioP2
59072;SDS011;44859;51.934;15.554;2023-06-22T00:02:23;20.30;;;15.20;;
59072;SDS011;44859;51.934;15.554;2023-06-22T00:04:51;20.90;;;16.10;;
59072;SDS011;44859;51.934;15.554;2023-06-22T00:07:18;20.20;;;16.00;;
59072;SDS011;44859;51.934;15.554;2023-06-22T00:09:46;21.40;;;15.80;;
59072;SDS011;44859;51.934;15.554;2023-06-22T00:12:13;20.80;;;15.40;;
59072;SDS011;44859;51.934;15.554;2023-06-22T00:14:41;21.20;;;16.30;;
59072;SDS011;44859;51.934;15.554;2023-06-22T00:17:08;20.50;;;15.90;;
59072;SDS011;44859;51.934;15.554;2023-06-22T00:19:35;20.40;;;16.00;;
59072;SDS011;44859;51.934;15.554;2023-06-22T00:22:02;20.90;;;16.00;;
59072;SDS011;44859;51.934;15.554;2023-06-22T00:24:37;23.50;;;16.80;;
59072;SDS011;44859;51.934;15.554;2023-06-22T00:27:04;25.00;;;17.90;;
59072;SDS011;44859;51.934;15.554;2023-06-22T00:29:32;20.60;;;16.50;;
59072;SDS011;44859;51.934;15.554;2023-06-22T00:31:59;21.30;;;16.30;;
59072;SDS011;44859;51.934;15.554;2023-06-22T00:34:27;23.20;;;17.10;;
59072;SDS011;44859;51.934;15.554;2023-06-22T00:36:54;21.30;;;16.70;;
59072;SDS011;44859;51.934;15.554;2023-06-22T00:39:21;21.20;;;16.30;;
59072;SDS011;44859;51.934;15.554;2023-06-22T00:41:49;22.00;;;16.10;;
59072;SDS011;44859;51.934;15.554;2023-06-22T00:44:16;20.80;;;16.70;;
59072;SDS011;44859;51.934;15.554;2023-06-22T00:46:46;20.00;;;15.90;;
59072;SDS011;44859;51.934;15.554;2023-06-22T00:49:14;20.20;;;15.80;;
59072;SDS011;44859;51.934;15.554;2023-06-22T00:51:41;21.80;;;16.00;;
59072;SDS011;44859;51.934;15.554;2023-06-22T00:54:12;21.20;;;15.80;;
59072;SDS011;44859;51.934;15.554;2023-06-22T00:57:00;21.50;;;15.70;;
59072;SDS011;44859;51.934;15.554;2023-06-22T00:59:27;20.50;;;15.70;;
59072;SDS011;44859;51.934;15.554;2023-06-22T01:01:55;19.80;;;14.80;;
59072;SDS011;44859;51.934;15.554;2023-06-22T01:04:26;19.50;;;15.00;;
59072;SDS011;44859;51.934;15.554;2023-06-22T01:07:14;20.40;;;15.20;;
59072;SDS011;44859;51.934;15.554;2023-06-22T01:12:29;20.70;;;14.70;;
59072;SDS011;44859;51.934;15.554;2023-06-22T01:15:10;20.10;;;14.30;;
59072;SDS011;44859;51.934;15.554;2023-06-22T01:17:43;19.10;;;14.70;;
59072;SDS011;44859;51.934;15.554;2023-06-22T01:20:11;19.20;;;13.90;;
59072;SDS011;44859;51.934;15.554;2023-06-22T01:22:48;20.80;;;13.70;;
59072;SDS011;44859;51.934;15.554;2023-06-22T01:28:50;20.10;;;14.10;;
59072;SDS011;44859;51.934;15.554;2023-06-22T01:31:24;19.50;;;14.10;;
59072;SDS011;44859;51.934;15.554;2023-06-22T01:33:54;18.90;;;13.50;;
59072;SDS011;44859;51.934;15.554;2023-06-22T01:36:30;18.70;;;13.20;;
59072;SDS011;44859;51.934;15.554;2023-06-22T01:38:59;18.10;;;13.40;;
59072;SDS011;44859;51.934;15.554;2023-06-22T01:41:43;18.80;;;13.00;;
59072;SDS011;44859;51.934;15.554;2023-06-22T01:44:11;18.60;;;13.10;;
59072;SDS011;44859;51.934;15.554;2023-06-22T01:46:39;19.40;;;13.50;;
59072;SDS011;44859;51.934;15.554;2023-06-22T01:49:07;18.70;;;13.50;;
59072;SDS011;44859;51.934;15.554;2023-06-22T01:51:36;18.30;;;13.00;;
59072;SDS011;44859;51.934;15.554;2023-06-22T01:54:24;18.10;;;12.50;;
59072;SDS011;44859;51.934;15.554;2023-06-22T01:56:51;18.30;;;13.40;;
59072;SDS011;44859;51.934;15.554;2023-06-22T01:59:25;18.60;;;14.00;;
59072;SDS011;44859;51.934;15.554;2023-06-22T02:02:11;19.30;;;13.10;;
59072;SDS011;44859;51.934;15.554;2023-06-22T02:04:54;18.70;;;13.20;;
59072;SDS011;44859;51.934;15.554;2023-06-22T02:10:26;18.60;;;12.90;;
59072;SDS011;44859;51.934;15.554;2023-06-22T02:12:56;19.20;;;13.30;;
59072;SDS011;44859;51.934;15.554;2023-06-22T02:15:25;18.00;;;13.00;;
59072;SDS011;44859;51.934;15.554;2023-06-22T02:21:43;19.70;;;13.80;;
59072;SDS011;44859;51.934;15.554;2023-06-22T02:24:11;19.40;;;14.30;;
59072;SDS011;44859;51.934;15.554;2023-06-22T02:26:49;22.30;;;14.80;;
59072;SDS011;44859;51.934;15.554;2023-06-22T02:29:17;20.40;;;14.20;;
59072;SDS011;44859;51.934;15.554;2023-06-22T02:31:44;20.90;;;14.60;;
59072;SDS011;44859;51.934;15.554;2023-06-22T02:34:11;20.90;;;15.30;;
59072;SDS011;44859;51.934;15.554;2023-06-22T02:36:42;21.30;;;14.20;;
59072;SDS011;44859;51.934;15.554;2023-06-22T02:39:20;21.90;;;15.60;;
59072;SDS011;44859;51.934;15.554;2023-06-22T02:41:58;22.60;;;15.30;;
59072;SDS011;44859;51.934;15.554;2023-06-22T02:44:31;21.50;;;15.40;;
59072;SDS011;44859;51.934;15.554;2023-06-22T02:47:01;21.10;;;15.40;;
59072;SDS011;44859;51.934;15.554;2023-06-22T02:49:28;21.40;;;14.90;;
59072;SDS011;44859;51.934;15.554;2023-06-22T02:51:57;22.00;;;15.70;;
59072;SDS011;44859;51.934;15.554;2023-06-22T02:54:26;21.90;;;15.20;;
59072;SDS011;44859;51.934;15.554;2023-06-22T02:56:54;21.90;;;15.30;;
59072;SDS011;44859;51.934;15.554;2023-06-22T02:59:31;21.90;;;15.50;;
59072;SDS011;44859;51.934;15.554;2023-06-22T03:02:00;22.20;;;16.10;;
59072;SDS011;44859;51.934;15.554;2023-06-22T03:04:29;20.60;;;15.00;;
59072;SDS011;44859;51.934;15.554;2023-06-22T03:06:58;21.40;;;15.10;;
59072;SDS011;44859;51.934;15.554;2023-06-22T03:09:28;22.40;;;16.20;;
59072;SDS011;44859;51.934;15.554;2023-06-22T03:11:55;21.80;;;15.80;;
59072;SDS011;44859;51.934;15.554;2023-06-22T03:14:23;22.40;;;16.40;;
59072;SDS011;44859;51.934;15.554;2023-06-22T03:16:51;23.60;;;16.50;;
59072;SDS011;44859;51.934;15.554;2023-06-22T03:19:18;22.40;;;15.70;;
59072;SDS011;44859;51.934;15.554;2023-06-22T03:21:48;22.00;;;16.30;;
59072;SDS011;44859;51.934;15.554;2023-06-22T03:24:18;23.10;;;17.00;;
59072;SDS011;44859;51.934;15.554;2023-06-22T03:26:45;22.40;;;17.20;;
59072;SDS011;44859;51.934;15.554;2023-06-22T03:29:13;21.50;;;16.70;;
59072;SDS011;44859;51.934;15.554;2023-06-22T03:31:43;22.70;;;17.10;;
59072;SDS011;44859;51.934;15.554;2023-06-22T03:34:13;22.60;;;17.70;;
59072;SDS011;44859;51.934;15.554;2023-06-22T03:36:40;23.20;;;17.30;;
59072;SDS011;44859;51.934;15.554;2023-06-22T03:42:37;23.40;;;16.10;;
59072;SDS011;44859;51.934;15.554;2023-06-22T03:45:06;22.60;;;17.00;;
59072;SDS011;44859;51.934;15.554;2023-06-22T03:47:35;23.50;;;17.70;;
59072;SDS011;44859;51.934;15.554;2023-06-22T03:52:33;20.70;;;15.30;;
59072;SDS011;44859;51.934;15.554;2023-06-22T03:55:01;23.40;;;18.10;;
59072;SDS011;44859;51.934;15.554;2023-06-22T03:57:34;21.90;;;17.50;;
59072;SDS011;44859;51.934;15.554;2023-06-22T04:00:01;24.50;;;19.10;;
59072;SDS011;44859;51.934;15.554;2023-06-22T04:02:32;24.10;;;18.90;;
59072;SDS011;44859;51.934;15.554;2023-06-22T04:05:00;23.40;;;18.30;;
59072;SDS011;44859;51.934;15.554;2023-06-22T04:07:31;24.00;;;18.50;;
59072;SDS011;44859;51.934;15.554;2023-06-22T04:12:33;24.60;;;19.00;;
59072;SDS011;44859;51.934;15.554;2023-06-22T04:15:09;25.20;;;19.90;;
59072;SDS011;44859;51.934;15.554;2023-06-22T04:17:39;24.30;;;18.70;;
59072;SDS011;44859;51.934;15.554;2023-06-22T04:20:07;25.00;;;19.70;;
59072;SDS011;44859;51.934;15.554;2023-06-22T04:22:35;25.30;;;19.60;;
59072;SDS011;44859;51.934;15.554;2023-06-22T04:25:02;25.80;;;20.20;;
59072;SDS011;44859;51.934;15.554;2023-06-22T04:27:29;23.80;;;18.50;;
59072;SDS011;44859;51.934;15.554;2023-06-22T04:30:05;23.00;;;18.50;;
59072;SDS011;44859;51.934;15.554;2023-06-22T04:32:34;23.80;;;18.70;;
59072;SDS011;44859;51.934;15.554;2023-06-22T04:35:06;22.70;;;17.60;;
59072;SDS011;44859;51.934;15.554;2023-06-22T04:37:36;21.90;;;17.30;;
59072;SDS011;44859;51.934;15.554;2023-06-22T04:40:05;21.30;;;15.50;;
59072;SDS011;44859;51.934;15.554;2023-06-22T04:42:37;21.30;;;16.20;;
59072;SDS011;44859;51.934;15.554;2023-06-22T04:45:05;22.30;;;16.70;;
59072;SDS011;44859;51.934;15.554;2023-06-22T04:47:32;22.00;;;16.20;;
59072;SDS011;44859;51.934;15.554;2023-06-22T04:50:00;22.60;;;16.50;;
59072;SDS011;44859;51.934;15.554;2023-06-22T04:52:32;20.90;;;15.50;;
59072;SDS011;44859;51.934;15.554;2023-06-22T04:54:59;21.10;;;15.70;;
59072;SDS011;44859;51.934;15.554;2023-06-22T04:57:30;19.80;;;14.70;;
59072;SDS011;44859;51.934;15.554;2023-06-22T05:00:01;20.20;;;14.00;;
59072;SDS011;44859;51.934;15.554;2023-06-22T05:02:44;19.40;;;14.00;;
59072;SDS011;44859;51.934;15.554;2023-06-22T05:05:14;18.60;;;13.50;;
59072;SDS011;44859;51.934;15.554;2023-06-22T05:07:42;18.60;;;13.10;;
59072;SDS011;44859;51.934;15.554;2023-06-22T05:10:12;18.20;;;13.00;;
59072;SDS011;44859;51.934;15.554;2023-06-22T05:12:39;19.40;;;12.80;;
59072;SDS011;44859;51.934;15.554;2023-06-22T05:15:08;19.00;;;12.80;;
59072;SDS011;44859;51.934;15.554;2023-06-22T05:17:36;18.10;;;12.40;;
59072;SDS011;44859;51.934;15.554;2023-06-22T05:20:10;17.80;;;12.30;;
59072;SDS011;44859;51.934;15.554;2023-06-22T05:22:38;18.40;;;12.00;;
59072;SDS011;44859;51.934;15.554;2023-06-22T05:25:07;17.60;;;11.70;;
59072;SDS011;44859;51.934;15.554;2023-06-22T05:27:36;18.50;;;12.00;;
59072;SDS011;44859;51.934;15.554;2023-06-22T05:32:35;17.00;;;11.60;;
59072;SDS011;44859;51.934;15.554;2023-06-22T05:35:04;16.70;;;11.10;;
59072;SDS011;44859;51.934;15.554;2023-06-22T05:37:32;17.50;;;10.80;;
59072;SDS011;44859;51.934;15.554;2023-06-22T05:39:59;16.90;;;10.90;;
59072;SDS011;44859;51.934;15.554;2023-06-22T05:42:29;16.70;;;11.00;;
59072;SDS011;44859;51.934;15.554;2023-06-22T05:44:56;16.40;;;10.30;;
59072;SDS011;44859;51.934;15.554;2023-06-22T05:47:24;16.60;;;10.80;;
59072;SDS011;44859;51.934;15.554;2023-06-22T05:49:51;16.20;;;10.20;;
59072;SDS011;44859;51.934;15.554;2023-06-22T05:52:18;16.20;;;11.20;;
59072;SDS011;44859;51.934;15.554;2023-06-22T05:54:45;16.40;;;10.60;;
59072;SDS011;44859;51.934;15.554;2023-06-22T05:57:12;16.80;;;10.90;;
59072;SDS011;44859;51.934;15.554;2023-06-22T05:59:40;16.20;;;10.50;;
59072;SDS011;44859;51.934;15.554;2023-06-22T06:02:17;16.10;;;10.70;;
59072;SDS011;44859;51.934;15.554;2023-06-22T06:04:53;15.70;;;10.10;;
59072;SDS011;44859;51.934;15.554;2023-06-22T06:07:21;15.50;;;10.20;;
59072;SDS011;44859;51.934;15.554;2023-06-22T06:09:48;15.70;;;10.10;;
59072;SDS011;44859;51.934;15.554;2023-06-22T06:12:15;16.60;;;10.20;;
59072;SDS011;44859;51.934;15.554;2023-06-22T06:14:51;16.20;;;9.60;;
59072;SDS011;44859;51.934;15.554;2023-06-22T06:17:27;25.40;;;17.80;;
59072;SDS011;44859;51.934;15.554;2023-06-22T06:20:04;78.60;;;56.40;;
59072;SDS011;44859;51.934;15.554;2023-06-22T06:22:42;24.30;;;21.30;;
59072;SDS011;44859;51.934;15.554;2023-06-22T06:25:12;83.50;;;62.90;;
59072;SDS011;44859;51.934;15.554;2023-06-22T06:27:43;97.20;;;66.40;;
59072;SDS011;44859;51.934;15.554;2023-06-22T06:30:13;31.30;;;20.50;;
59072;SDS011;44859;51.934;15.554;2023-06-22T06:32:41;17.80;;;10.80;;
59072;SDS011;44859;51.934;15.554;2023-06-22T06:35:13;14.80;;;8.80;;
59072;SDS011;44859;51.934;15.554;2023-06-22T06:40:13;15.50;;;10.10;;
59072;SDS011;44859;51.934;15.554;2023-06-22T06:42:44;16.20;;;10.30;;
59072;SDS011;44859;51.934;15.554;2023-06-22T06:45:32;15.20;;;9.70;;
59072;SDS011;44859;51.934;15.554;2023-06-22T06:48:01;15.90;;;9.40;;
59072;SDS011;44859;51.934;15.554;2023-06-22T06:50:28;16.40;;;10.60;;
59072;SDS011;44859;51.934;15.554;2023-06-22T06:52:57;16.40;;;10.50;;
59072;SDS011;44859;51.934;15.554;2023-06-22T06:55:35;17.10;;;9.80;;
59072;SDS011;44859;51.934;15.554;2023-06-22T06:58:02;15.30;;;9.50;;
59072;SDS011;44859;51.934;15.554;2023-06-22T07:00:34;14.80;;;10.30;;
59072;SDS011;44859;51.934;15.554;2023-06-22T07:03:03;15.60;;;9.50;;
59072;SDS011;44859;51.934;15.554;2023-06-22T07:05:38;16.60;;;10.20;;
59072;SDS011;44859;51.934;15.554;2023-06-22T07:08:05;16.30;;;10.70;;
59072;SDS011;44859;51.934;15.554;2023-06-22T07:10:35;16.10;;;10.20;;
59072;SDS011;44859;51.934;15.554;2023-06-22T07:13:08;17.90;;;10.40;;
59072;SDS011;44859;51.934;15.554;2023-06-22T07:15:36;16.70;;;10.30;;
59072;SDS011;44859;51.934;15.554;2023-06-22T07:18:03;17.10;;;9.80;;
59072;SDS011;44859;51.934;15.554;2023-06-22T07:20:31;15.00;;;9.80;;
59072;SDS011;44859;51.934;15.554;2023-06-22T07:22:58;17.00;;;10.30;;
59072;SDS011;44859;51.934;15.554;2023-06-22T07:25:25;16.20;;;10.80;;
59072;SDS011;44859;51.934;15.554;2023-06-22T07:27:57;17.10;;;10.60;;
59072;SDS011;44859;51.934;15.554;2023-06-22T07:30:42;16.80;;;10.00;;
59072;SDS011;44859;51.934;15.554;2023-06-22T07:33:09;15.80;;;9.90;;
59072;SDS011;44859;51.934;15.554;2023-06-22T07:35:40;16.30;;;11.20;;
59072;SDS011;44859;51.934;15.554;2023-06-22T07:38:08;14.80;;;9.70;;
59072;SDS011;44859;51.934;15.554;2023-06-22T07:40:36;16.10;;;9.20;;
59072;SDS011;44859;51.934;15.554;2023-06-22T07:43:03;15.20;;;10.40;;
59072;SDS011;44859;51.934;15.554;2023-06-22T07:45:30;16.20;;;10.80;;
59072;SDS011;44859;51.934;15.554;2023-06-22T07:48:00;16.10;;;10.30;;
59072;SDS011;44859;51.934;15.554;2023-06-22T07:52:58;15.60;;;9.90;;
59072;SDS011;44859;51.934;15.554;2023-06-22T07:55:25;14.70;;;10.00;;
59072;SDS011;44859;51.934;15.554;2023-06-22T07:57:53;14.90;;;10.10;;
59072;SDS011;44859;51.934;15.554;2023-06-22T08:00:20;15.60;;;9.80;;
59072;SDS011;44859;51.934;15.554;2023-06-22T08:02:47;14.60;;;9.50;;
59072;SDS011;44859;51.934;15.554;2023-06-22T08:05:15;13.90;;;9.00;;
59072;SDS011;44859;51.934;15.554;2023-06-22T08:07:49;15.80;;;9.80;;
59072;SDS011;44859;51.934;15.554;2023-06-22T08:10:25;15.50;;;10.10;;
59072;SDS011;44859;51.934;15.554;2023-06-22T08:12:52;15.50;;;9.20;;
59072;SDS011;44859;51.934;15.554;2023-06-22T08:15:20;12.90;;;8.60;;
59072;SDS011;44859;51.934;15.554;2023-06-22T08:17:48;14.90;;;8.50;;
59072;SDS011;44859;51.934;15.554;2023-06-22T08:20:15;13.60;;;9.10;;
59072;SDS011;44859;51.934;15.554;2023-06-22T08:22:43;13.30;;;7.20;;
59072;SDS011;44859;51.934;15.554;2023-06-22T08:25:11;13.70;;;8.00;;
59072;SDS011;44859;51.934;15.554;2023-06-22T08:27:44;13.80;;;8.60;;
59072;SDS011;44859;51.934;15.554;2023-06-22T08:30:24;13.60;;;7.90;;
59072;SDS011;44859;51.934;15.554;2023-06-22T08:32:51;12.50;;;7.40;;
59072;SDS011;44859;51.934;15.554;2023-06-22T08:35:19;12.30;;;7.80;;
59072;SDS011;44859;51.934;15.554;2023-06-22T08:37:46;13.00;;;7.70;;
59072;SDS011;44859;51.934;15.554;2023-06-22T08:40:19;13.50;;;7.60;;
59072;SDS011;44859;51.934;15.554;2023-06-22T08:42:47;13.40;;;8.50;;
59072;SDS011;44859;51.934;15.554;2023-06-22T08:45:18;15.00;;;8.60;;
59072;SDS011;44859;51.934;15.554;2023-06-22T08:47:45;14.50;;;8.80;;
59072;SDS011;44859;51.934;15.554;2023-06-22T08:50:13;13.70;;;8.70;;
59072;SDS011;44859;51.934;15.554;2023-06-22T08:52:40;14.90;;;9.00;;
59072;SDS011;44859;51.934;15.554;2023-06-22T08:55:09;13.60;;;9.00;;
59072;SDS011;44859;51.934;15.554;2023-06-22T08:57:37;13.80;;;8.30;;
59072;SDS011;44859;51.934;15.554;2023-06-22T09:00:09;12.70;;;7.80;;
59072;SDS011;44859;51.934;15.554;2023-06-22T09:02:44;13.60;;;7.90;;
59072;SDS011;44859;51.934;15.554;2023-06-22T09:05:13;12.50;;;7.80;;
59072;SDS011;44859;51.934;15.554;2023-06-22T09:07:41;13.60;;;8.70;;
59072;SDS011;44859;51.934;15.554;2023-06-22T09:10:08;12.60;;;7.80;;
59072;SDS011;44859;51.934;15.554;2023-06-22T09:12:45;12.50;;;7.80;;
59072;SDS011;44859;51.934;15.554;2023-06-22T09:15:12;14.00;;;7.80;;
59072;SDS011;44859;51.934;15.554;2023-06-22T09:17:45;12.00;;;7.40;;
59072;SDS011;44859;51.934;15.554;2023-06-22T09:20:21;12.00;;;7.00;;
59072;SDS011;44859;51.934;15.554;2023-06-22T09:22:49;13.10;;;7.80;;
59072;SDS011;44859;51.934;15.554;2023-06-22T09:25:16;11.70;;;7.10;;
59072;SDS011;44859;51.934;15.554;2023-06-22T09:27:43;12.70;;;7.20;;
59072;SDS011;44859;51.934;15.554;2023-06-22T09:30:10;11.90;;;6.50;;
59072;SDS011;44859;51.934;15.554;2023-06-22T09:32:38;10.40;;;6.00;;
59072;SDS011;44859;51.934;15.554;2023-06-22T09:35:05;10.40;;;6.20;;
59072;SDS011;44859;51.934;15.554;2023-06-22T09:37:34;9.30;;;5.80;;
59072;SDS011;44859;51.934;15.554;2023-06-22T09:40:01;11.50;;;5.50;;
59072;SDS011;44859;51.934;15.554;2023-06-22T09:42:34;9.30;;;5.70;;
59072;SDS011;44859;51.934;15.554;2023-06-22T09:45:02;9.80;;;5.80;;
59072;SDS011;44859;51.934;15.554;2023-06-22T09:47:29;9.90;;;5.90;;
59072;SDS011;44859;51.934;15.554;2023-06-22T09:49:57;9.50;;;5.40;;
59072;SDS011;44859;51.934;15.554;2023-06-22T09:52:26;10.30;;;6.10;;
59072;SDS011;44859;51.934;15.554;2023-06-22T09:55:09;10.20;;;5.00;;
59072;SDS011;44859;51.934;15.554;2023-06-22T09:57:36;8.40;;;5.10;;
59072;SDS011;44859;51.934;15.554;2023-06-22T10:00:04;10.10;;;5.80;;
59072;SDS011;44859;51.934;15.554;2023-06-22T10:02:38;10.20;;;6.00;;
59072;SDS011;44859;51.934;15.554;2023-06-22T10:05:06;10.60;;;5.60;;
59072;SDS011;44859;51.934;15.554;2023-06-22T10:07:35;8.70;;;5.30;;
59072;SDS011;44859;51.934;15.554;2023-06-22T10:10:08;9.30;;;5.70;;
59072;SDS011;44859;51.934;15.554;2023-06-22T10:12:36;9.60;;;5.50;;
59072;SDS011;44859;51.934;15.554;2023-06-22T10:15:04;9.50;;;5.80;;
59072;SDS011;44859;51.934;15.554;2023-06-22T10:17:33;9.20;;;5.30;;
59072;SDS011;44859;51.934;15.554;2023-06-22T10:20:00;10.90;;;5.50;;
59072;SDS011;44859;51.934;15.554;2023-06-22T10:22:32;10.30;;;5.80;;
59072;SDS011;44859;51.934;15.554;2023-06-22T10:25:00;9.40;;;6.00;;
59072;SDS011;44859;51.934;15.554;2023-06-22T10:27:28;9.60;;;5.60;;
59072;SDS011;44859;51.934;15.554;2023-06-22T10:29:55;9.20;;;5.70;;
59072;SDS011;44859;51.934;15.554;2023-06-22T10:32:26;8.70;;;5.40;;
59072;SDS011;44859;51.934;15.554;2023-06-22T10:34:56;9.60;;;5.40;;
59072;SDS011;44859;51.934;15.554;2023-06-22T10:37:29;9.20;;;6.10;;
59072;SDS011;44859;51.934;15.554;2023-06-22T10:40:00;9.40;;;5.20;;
59072;SDS011;44859;51.934;15.554;2023-06-22T10:42:29;8.90;;;5.30;;
59072;SDS011;44859;51.934;15.554;2023-06-22T10:45:07;9.00;;;5.40;;
59072;SDS011;44859;51.934;15.554;2023-06-22T10:47:35;9.40;;;5.90;;
59072;SDS011;44859;51.934;15.554;2023-06-22T10:50:03;10.60;;;5.80;;
59072;SDS011;44859;51.934;15.554;2023-06-22T10:52:31;10.90;;;5.60;;
59072;SDS011;44859;51.934;15.554;2023-06-22T10:54:58;9.20;;;5.70;;
59072;SDS011;44859;51.934;15.554;2023-06-22T10:57:27;11.30;;;6.10;;
59072;SDS011;44859;51.934;15.554;2023-06-22T10:59:54;9.50;;;5.70;;
59072;SDS011;44859;51.934;15.554;2023-06-22T11:02:22;8.90;;;5.70;;
59072;SDS011;44859;51.934;15.554;2023-06-22T11:04:51;8.80;;;5.40;;
59072;SDS011;44859;51.934;15.554;2023-06-22T11:07:18;10.20;;;5.90;;
59072;SDS011;44859;51.934;15.554;2023-06-22T11:09:46;11.30;;;5.80;;
59072;SDS011;44859;51.934;15.554;2023-06-22T11:12:13;10.70;;;5.80;;
59072;SDS011;44859;51.934;15.554;2023-06-22T11:14:40;10.70;;;5.70;;
59072;SDS011;44859;51.934;15.554;2023-06-22T11:17:09;9.50;;;5.80;;
59072;SDS011;44859;51.934;15.554;2023-06-22T11:19:36;10.50;;;5.70;;
59072;SDS011;44859;51.934;15.554;2023-06-22T11:22:03;10.00;;;5.90;;
59072;SDS011;44859;51.934;15.554;2023-06-22T11:24:31;10.20;;;5.70;;
59072;SDS011;44859;51.934;15.554;2023-06-22T11:27:01;10.50;;;5.70;;
59072;SDS011;44859;51.934;15.554;2023-06-22T11:29:28;10.90;;;5.70;;
59072;SDS011;44859;51.934;15.554;2023-06-22T11:32:05;8.20;;;5.50;;
59072;SDS011;44859;51.934;15.554;2023-06-22T11:34:33;11.10;;;5.70;;
59072;SDS011;44859;51.934;15.554;2023-06-22T11:37:00;10.20;;;6.20;;
59072;SDS011;44859;51.934;15.554;2023-06-22T11:39:28;8.70;;;5.40;;
59072;SDS011;44859;51.934;15.554;2023-06-22T11:42:11;9.40;;;5.60;;
59072;SDS011;44859;51.934;15.554;2023-06-22T11:44:40;11.10;;;5.80;;
59072;SDS011;44859;51.934;15.554;2023-06-22T11:47:07;10.40;;;6.10;;
59072;SDS011;44859;51.934;15.554;2023-06-22T11:49:35;10.00;;;6.00;;
59072;SDS011;44859;51.934;15.554;2023-06-22T11:52:06;9.00;;;5.60;;
59072;SDS011;44859;51.934;15.554;2023-06-22T11:54:33;9.70;;;5.80;;
59072;SDS011;44859;51.934;15.554;2023-06-22T11:57:02;11.30;;;6.30;;
59072;SDS011;44859;51.934;15.554;2023-06-22T11:59:29;11.30;;;6.20;;
59072;SDS011;44859;51.934;15.554;2023-06-22T12:01:57;9.50;;;5.70;;
59072;SDS011;44859;51.934;15.554;2023-06-22T12:04:26;9.80;;;6.00;;
59072;SDS011;44859;51.934;15.554;2023-06-22T12:07:02;9.80;;;5.60;;
59072;SDS011;44859;51.934;15.554;2023-06-22T12:09:29;9.40;;;6.00;;
59072;SDS011;44859;51.934;15.554;2023-06-22T12:11:57;10.70;;;6.10;;
59072;SDS011;44859;51.934;15.554;2023-06-22T12:14:24;8.90;;;5.30;;
59072;SDS011;44859;51.934;15.554;2023-06-22T12:16:55;9.60;;;5.50;;
59072;SDS011;44859;51.934;15.554;2023-06-22T12:19:42;9.00;;;5.40;;
59072;SDS011;44859;51.934;15.554;2023-06-22T12:22:09;8.80;;;5.60;;
59072;SDS011;44859;51.934;15.554;2023-06-22T12:24:36;10.30;;;5.50;;
59072;SDS011;44859;51.934;15.554;2023-06-22T12:27:04;10.10;;;5.90;;
59072;SDS011;44859;51.934;15.554;2023-06-22T12:29:31;9.30;;;5.40;;
59072;SDS011;44859;51.934;15.554;2023-06-22T12:31:58;9.30;;;5.60;;
59072;SDS011;44859;51.934;15.554;2023-06-22T12:34:25;12.20;;;6.30;;
59072;SDS011;44859;51.934;15.554;2023-06-22T12:36:52;10.70;;;6.10;;
59072;SDS011;44859;51.934;15.554;2023-06-22T12:39:21;9.90;;;5.70;;
59072;SDS011;44859;51.934;15.554;2023-06-22T12:41:48;9.00;;;5.60;;
59072;SDS011;44859;51.934;15.554;2023-06-22T12:44:15;10.00;;;5.80;;
59072;SDS011;44859;51.934;15.554;2023-06-22T12:46:42;15.80;;;11.30;;
59072;SDS011;44859;51.934;15.554;2023-06-22T12:49:09;11.10;;;6.20;;
59072;SDS011;44859;51.934;15.554;2023-06-22T12:51:39;10.40;;;5.90;;
59072;SDS011;44859;51.934;15.554;2023-06-22T12:54:10;10.90;;;5.90;;
59072;SDS011;44859;51.934;15.554;2023-06-22T12:59:08;9.90;;;6.10;;
59072;SDS011;44859;51.934;15.554;2023-06-22T13:01:35;11.30;;;6.00;;
59072;SDS011;44859;51.934;15.554;2023-06-22T13:04:04;11.90;;;6.30;;
59072;SDS011;44859;51.934;15.554;2023-06-22T13:06:31;12.70;;;6.20;;
59072;SDS011;44859;51.934;15.554;2023-06-22T13:08:58;10.30;;;5.70;;
59072;SDS011;44859;51.934;15.554;2023-06-22T13:11:46;9.70;;;6.00;;
59072;SDS011;44859;51.934;15.554;2023-06-22T13:14:13;9.20;;;5.80;;
59072;SDS011;44859;51.934;15.554;2023-06-22T13:16:42;10.60;;;5.90;;
59072;SDS011;44859;51.934;15.554;2023-06-22T13:19:10;10.00;;;5.90;;
59072;SDS011;44859;51.934;15.554;2023-06-22T13:21:38;9.70;;;5.70;;
59072;SDS011;44859;51.934;15.554;2023-06-22T13:24:05;8.80;;;5.60;;
59072;SDS011;44859;51.934;15.554;2023-06-22T13:26:32;9.80;;;6.00;;
59072;SDS011;44859;51.934;15.554;2023-06-22T13:29:00;10.20;;;5.50;;
59072;SDS011;44859;51.934;15.554;2023-06-22T13:31:27;10.40;;;6.00;;
59072;SDS011;44859;51.934;15.554;2023-06-22T13:33:54;11.30;;;6.10;;
59072;SDS011;44859;51.934;15.554;2023-06-22T13:36:21;10.60;;;5.80;;
59072;SDS011;44859;51.934;15.554;2023-06-22T13:38:49;9.10;;;5.50;;
59072;SDS011;44859;51.934;15.554;2023-06-22T13:41:17;8.80;;;5.50;;
59072;SDS011;44859;51.934;15.554;2023-06-22T13:43:44;9.90;;;5.70;;
59072;SDS011;44859;51.934;15.554;2023-06-22T13:46:12;8.90;;;5.30;;
59072;SDS011;44859;51.934;15.554;2023-06-22T13:48:39;10.10;;;5.80;;
59072;SDS011;44859;51.934;15.554;2023-06-22T13:51:06;11.60;;;7.20;;
59072;SDS011;44859;51.934;15.554;2023-06-22T13:53:33;10.70;;;6.40;;
59072;SDS011;44859;51.934;15.554;2023-06-22T13:56:01;10.30;;;6.10;;
59072;SDS011;44859;51.934;15.554;2023-06-22T13:58:29;10.70;;;6.10;;
59072;SDS011;44859;51.934;15.554;2023-06-22T14:00:59;11.30;;;6.30;;
59072;SDS011;44859;51.934;15.554;2023-06-22T14:03:26;10.40;;;5.90;;
59072;SDS011;44859;51.934;15.554;2023-06-22T14:05:54;9.20;;;5.60;;
59072;SDS011;44859;51.934;15.554;2023-06-22T14:08:22;10.60;;;5.90;;
59072;SDS011;44859;51.934;15.554;2023-06-22T14:10:54;10.40;;;6.00;;
59072;SDS011;44859;51.934;15.554;2023-06-22T14:13:21;9.30;;;5.70;;
59072;SDS011;44859;51.934;15.554;2023-06-22T14:15:49;10.80;;;6.00;;
59072;SDS011;44859;51.934;15.554;2023-06-22T14:18:18;11.40;;;6.20;;
59072;SDS011;44859;51.934;15.554;2023-06-22T14:20:45;9.30;;;5.90;;
59072;SDS011;44859;51.934;15.554;2023-06-22T14:23:14;11.10;;;6.30;;
59072;SDS011;44859;51.934;15.554;2023-06-22T14:25:42;8.90;;;5.70;;
59072;SDS011;44859;51.934;15.554;2023-06-22T14:28:14;9.80;;;5.60;;
59072;SDS011;44859;51.934;15.554;2023-06-22T14:30:46;9.50;;;6.00;;
59072;SDS011;44859;51.934;15.554;2023-06-22T14:33:13;11.60;;;6.10;;
59072;SDS011;44859;51.934;15.554;2023-06-22T14:35:40;10.60;;;6.20;;
59072;SDS011;44859;51.934;15.554;2023-06-22T14:38:07;10.20;;;5.80;;
59072;SDS011;44859;51.934;15.554;2023-06-22T14:40:34;9.90;;;5.70;;
59072;SDS011;44859;51.934;15.554;2023-06-22T14:43:19;9.00;;;5.60;;
59072;SDS011;44859;51.934;15.554;2023-06-22T14:45:47;10.20;;;5.90;;
59072;SDS011;44859;51.934;15.554;2023-06-22T14:48:15;10.10;;;5.80;;
59072;SDS011;44859;51.934;15.554;2023-06-22T14:50:41;9.00;;;5.50;;
59072;SDS011;44859;51.934;15.554;2023-06-22T14:53:08;11.20;;;5.60;;
59072;SDS011;44859;51.934;15.554;2023-06-22T14:55:35;9.80;;;5.70;;
59072;SDS011;44859;51.934;15.554;2023-06-22T14:58:03;10.70;;;6.10;;
59072;SDS011;44859;51.934;15.554;2023-06-22T15:00:29;8.00;;;5.40;;
59072;SDS011;44859;51.934;15.554;2023-06-22T15:02:57;10.60;;;5.90;;
59072;SDS011;44859;51.934;15.554;2023-06-22T15:05:26;10.10;;;5.70;;